createdAt,value
2022-10-19T00:00:35.671Z,0
2022-10-19T00:05:44.300Z,0
2022-10-19T00:10:53.910Z,0
2022-10-19T00:16:01.563Z,0
2022-10-19T00:21:09.141Z,0
2022-10-19T00:26:16.705Z,0
2022-10-19T00:31:24.276Z,0
2022-10-19T00:36:31.810Z,0
2022-10-19T00:41:39.346Z,0
2022-10-19T00:46:46.929Z,0
2022-10-19T00:51:54.381Z,0
2022-10-19T00:57:01.864Z,0
2022-10-19T01:02:09.351Z,0
2022-10-19T01:07:16.792Z,0
2022-10-19T01:12:24.201Z,0
2022-10-19T01:17:31.598Z,0
2022-10-19T01:22:38.960Z,0
2022-10-19T01:27:46.339Z,0
2022-10-19T01:32:53.705Z,0
2022-10-19T01:38:01.105Z,0
2022-10-19T01:43:08.440Z,0
2022-10-19T01:48:15.828Z,0
2022-10-19T01:53:23.154Z,0
2022-10-19T01:58:30.481Z,0
2022-10-19T02:03:37.806Z,0
2022-10-19T02:08:45.112Z,0
2022-10-19T02:13:52.426Z,0
2022-10-19T02:18:59.742Z,0
2022-10-19T02:24:07.110Z,0
2022-10-19T02:29:14.514Z,0
2022-10-19T02:34:21.912Z,0
2022-10-19T02:39:29.342Z,0
2022-10-19T02:44:36.698Z,0
2022-10-19T02:49:44.100Z,0
2022-10-19T02:54:51.480Z,0
2022-10-19T02:59:58.871Z,0
2022-10-19T03:05:06.247Z,0
2022-10-19T03:10:13.626Z,0
2022-10-19T03:15:20.982Z,0
2022-10-19T03:20:28.353Z,0
2022-10-19T03:25:35.739Z,0
2022-10-19T03:30:43.355Z,0
2022-10-19T03:35:50.866Z,0
2022-10-19T03:40:58.426Z,0
2022-10-19T03:46:06.000Z,0
2022-10-19T03:51:13.512Z,0
2022-10-19T03:56:21.065Z,0
2022-10-19T04:01:28.564Z,0
2022-10-19T04:06:36.111Z,0
2022-10-19T04:11:43.666Z,0
2022-10-19T04:16:51.180Z,0
2022-10-19T04:21:58.710Z,0
2022-10-19T04:27:06.226Z,0
2022-10-19T04:32:13.719Z,0
2022-10-19T04:37:21.467Z,0
2022-10-19T04:42:29.205Z,0
2022-10-19T04:47:36.947Z,0
2022-10-19T04:52:44.684Z,0
2022-10-19T04:57:52.429Z,0
2022-10-19T05:03:00.152Z,0
2022-10-19T05:08:07.890Z,0
2022-10-19T05:13:15.605Z,0
2022-10-19T05:18:23.328Z,3
2022-10-19T05:23:31.000Z,2
2022-10-19T05:28:38.701Z,4
2022-10-19T05:33:46.428Z,8
2022-10-19T05:38:54.128Z,17
2022-10-19T05:44:02.449Z,80
2022-10-19T05:49:09.316Z,74
2022-10-19T05:54:16.486Z,90
2022-10-19T05:59:23.712Z,115
2022-10-19T06:04:30.959Z,155
2022-10-19T06:09:38.168Z,169
2022-10-19T06:14:45.458Z,210
2022-10-19T06:19:52.595Z,240
2022-10-19T06:24:59.796Z,372
2022-10-19T06:35:14.169Z,443
2022-10-19T06:40:21.375Z,673
2022-10-19T06:45:28.615Z,512
2022-10-19T06:50:35.757Z,430
2022-10-19T06:55:42.954Z,862
2022-10-19T07:00:50.156Z,947
2022-10-19T07:05:57.341Z,1050
2022-10-19T07:11:04.544Z,1163
2022-10-19T07:16:11.726Z,1023
2022-10-19T07:21:18.871Z,1680
2022-10-19T07:26:26.048Z,2063
2022-10-19T07:31:33.232Z,1988
2022-10-19T07:36:40.396Z,2097
2022-10-19T07:41:47.565Z,2165
2022-10-19T07:46:54.718Z,2182
2022-10-19T07:52:01.910Z,2408
2022-10-19T07:57:09.260Z,2316
2022-10-19T08:02:16.390Z,2371
2022-10-19T08:07:23.614Z,2623
2022-10-19T08:12:30.863Z,2426
2022-10-19T08:22:45.349Z,2944
2022-10-19T08:27:52.557Z,2226
2022-10-19T08:32:59.828Z,3266
2022-10-19T08:38:06.991Z,4107
2022-10-19T08:43:14.199Z,4129
2022-10-19T08:48:21.412Z,4107
2022-10-19T08:53:28.595Z,3687
2022-10-19T08:58:35.745Z,4663
2022-10-19T09:03:43.051Z,4352
2022-10-19T09:08:50.343Z,4220
2022-10-19T09:13:57.740Z,4567
2022-10-19T09:19:04.965Z,3905
2022-10-19T09:24:12.220Z,4772
2022-10-19T09:29:19.484Z,4871
2022-10-19T09:34:26.806Z,4429
2022-10-19T09:39:34.066Z,5070
2022-10-19T09:44:41.326Z,4882
2022-10-19T09:49:48.586Z,5950
2022-10-19T09:54:55.832Z,5567
2022-10-19T10:00:03.074Z,6064
2022-10-19T10:05:10.310Z,5916
2022-10-19T10:10:17.791Z,5724
2022-10-19T10:15:25.263Z,6105
2022-10-19T10:20:32.720Z,5309
2022-10-19T10:25:40.105Z,6244
2022-10-19T10:30:47.546Z,6933
2022-10-19T10:35:54.930Z,6913
2022-10-19T10:41:02.326Z,5614
2022-10-19T10:46:09.811Z,8545
2022-10-19T10:51:17.131Z,6069
2022-10-19T10:56:24.598Z,4829
2022-10-19T11:01:31.924Z,8852
2022-10-19T11:06:39.316Z,7158
2022-10-19T11:11:46.797Z,4998
2022-10-19T11:16:54.717Z,7493
2022-10-19T11:22:01.318Z,6803
2022-10-19T11:27:08.352Z,5750
2022-10-19T11:32:15.353Z,5840
2022-10-19T11:42:29.355Z,6250
2022-10-19T11:47:36.354Z,5906
2022-10-19T11:52:43.366Z,5921
2022-10-19T11:57:50.357Z,5070
2022-10-19T12:02:57.352Z,8093
2022-10-19T12:08:04.368Z,7608
2022-10-19T12:13:11.330Z,5712
2022-10-19T12:18:18.314Z,6424
2022-10-19T12:23:25.312Z,5306
2022-10-19T12:28:32.263Z,5353
2022-10-19T12:33:39.276Z,5958
2022-10-19T12:38:46.254Z,4972
2022-10-19T12:43:53.252Z,3024
2022-10-19T12:49:00.271Z,3192
2022-10-19T12:54:07.278Z,4272
2022-10-19T12:59:14.428Z,5244
2022-10-19T13:04:21.421Z,5451
2022-10-19T13:09:28.397Z,6700
2022-10-19T13:14:35.505Z,6444
2022-10-19T13:19:42.522Z,3898
2022-10-19T13:24:49.588Z,7408
2022-10-19T13:29:56.553Z,5445
2022-10-19T13:35:03.667Z,3010
2022-10-19T13:40:10.729Z,8868
2022-10-19T13:45:17.807Z,5175
2022-10-19T13:50:24.906Z,4762
2022-10-19T13:55:31.996Z,3158
2022-10-19T14:00:39.147Z,4991
2022-10-19T14:05:46.277Z,4143
2022-10-19T14:10:53.408Z,3735
2022-10-19T14:16:00.558Z,3197
2022-10-19T14:21:07.709Z,3679
2022-10-19T14:26:14.882Z,3618
2022-10-19T14:31:22.018Z,3466
2022-10-19T14:36:29.430Z,3051
2022-10-19T14:41:36.864Z,2947
2022-10-19T14:46:44.307Z,3090
2022-10-19T14:51:51.761Z,2797
2022-10-19T14:56:59.226Z,2646
2022-10-19T15:02:06.709Z,2457
2022-10-19T15:07:14.211Z,2491
2022-10-19T15:12:21.745Z,2746
2022-10-19T15:17:29.279Z,2518
2022-10-19T15:22:36.802Z,2466
2022-10-19T15:27:44.374Z,2447
2022-10-19T15:32:51.928Z,2214
2022-10-19T15:37:59.496Z,1839
2022-10-19T15:43:07.712Z,1556
2022-10-19T15:48:14.544Z,1173
2022-10-19T15:53:21.803Z,817
2022-10-19T15:58:29.122Z,614
2022-10-19T16:03:36.394Z,452
2022-10-19T16:08:43.710Z,312
2022-10-19T16:13:51.064Z,205
2022-10-19T16:18:58.461Z,134
2022-10-19T16:24:05.867Z,78
2022-10-19T16:29:13.278Z,40
2022-10-19T16:34:20.713Z,18
2022-10-19T16:39:28.150Z,6
2022-10-19T16:44:35.605Z,2
2022-10-19T16:49:43.064Z,0
2022-10-19T16:54:50.545Z,0
2022-10-19T16:59:58.056Z,0
2022-10-19T17:05:05.560Z,0
2022-10-19T17:10:13.110Z,0
2022-10-19T17:15:20.657Z,0
2022-10-19T17:20:28.231Z,0
2022-10-19T17:25:35.789Z,0
2022-10-19T17:30:43.376Z,0
2022-10-19T17:35:50.955Z,0
2022-10-19T17:40:58.503Z,0
2022-10-19T17:46:06.072Z,0
2022-10-19T17:51:13.631Z,0
2022-10-19T17:56:21.366Z,0
2022-10-19T18:01:29.029Z,0
2022-10-19T18:06:36.679Z,0
2022-10-19T18:11:44.383Z,0
2022-10-19T18:16:52.066Z,0
2022-10-19T18:21:59.740Z,0
2022-10-19T18:27:07.399Z,0
2022-10-19T18:32:15.160Z,0
2022-10-19T18:37:22.862Z,0
2022-10-19T18:42:30.628Z,0
2022-10-19T18:47:38.351Z,0
2022-10-19T18:52:46.097Z,0
2022-10-19T18:57:53.872Z,0
2022-10-19T19:03:01.938Z,0
2022-10-19T19:08:09.980Z,0
2022-10-19T19:13:18.063Z,0
2022-10-19T19:18:26.102Z,0
2022-10-19T19:23:34.140Z,0
2022-10-19T19:28:42.219Z,0
2022-10-19T19:33:50.274Z,0
2022-10-19T19:38:58.341Z,0
2022-10-19T19:44:06.412Z,0
2022-10-19T19:49:14.465Z,0
2022-10-19T19:54:22.516Z,0
2022-10-19T19:59:30.631Z,0
2022-10-19T20:04:38.723Z,0
2022-10-19T20:09:47.502Z,0
2022-10-19T20:14:56.176Z,0
2022-10-19T20:20:04.867Z,0
2022-10-19T20:25:13.553Z,0
2022-10-19T20:30:22.228Z,0
2022-10-19T20:35:30.919Z,0
2022-10-19T20:40:39.661Z,0
2022-10-19T20:45:48.337Z,0
2022-10-19T20:50:57.060Z,0
2022-10-19T20:56:05.761Z,0
2022-10-19T21:01:14.482Z,0
2022-10-19T21:06:23.189Z,0
2022-10-19T21:11:31.944Z,0
2022-10-19T21:16:41.700Z,0
2022-10-19T21:21:49.510Z,0
2022-10-19T21:26:57.468Z,0
2022-10-19T21:32:05.044Z,0
2022-10-19T21:37:12.781Z,0
2022-10-19T21:42:20.615Z,0
2022-10-19T21:47:28.338Z,0
2022-10-19T21:52:36.080Z,0
2022-10-19T21:57:43.870Z,0
2022-10-19T22:02:51.656Z,0
2022-10-19T22:07:59.459Z,0
2022-10-19T22:13:07.229Z,0
2022-10-19T22:18:14.993Z,0
2022-10-19T22:23:22.789Z,0
2022-10-19T22:28:30.588Z,0
2022-10-19T22:33:38.363Z,0
2022-10-19T22:38:46.185Z,0
2022-10-19T22:43:53.923Z,0
2022-10-19T22:49:01.739Z,0
2022-10-19T22:54:09.579Z,0
2022-10-19T22:59:17.310Z,0
2022-10-19T23:04:25.106Z,0
2022-10-19T23:09:32.888Z,0
2022-10-19T23:14:40.664Z,0
2022-10-19T23:19:48.480Z,0
2022-10-19T23:24:56.306Z,0
2022-10-19T23:30:04.279Z,0
2022-10-19T23:35:12.221Z,0
2022-10-19T23:40:20.145Z,0
2022-10-19T23:45:28.107Z,0
2022-10-19T23:50:36.105Z,0
2022-10-19T23:55:44.077Z,0
